createdAt,value
2023-03-20T00:01:24.277Z,13.63
2023-03-20T00:03:53.095Z,14.07
2023-03-20T00:06:25.436Z,15.67
2023-03-20T00:08:57.593Z,13.57
2023-03-20T00:11:34.936Z,13.00
2023-03-20T00:14:08.987Z,12.80
2023-03-20T00:16:41.042Z,13.57
2023-03-20T00:19:16.705Z,15.60
2023-03-20T00:21:56.721Z,13.87
2023-03-20T00:24:31.147Z,12.27
2023-03-20T00:27:07.609Z,13.33
2023-03-20T00:29:39.068Z,11.97
2023-03-20T00:32:13.353Z,14.53
2023-03-20T00:35:01.111Z,12.73
2023-03-20T00:37:37.299Z,14.83
2023-03-20T00:40:13.715Z,12.30
2023-03-20T00:42:46.509Z,14.07
2023-03-20T00:45:32.875Z,15.63
2023-03-20T00:48:16.167Z,13.57
2023-03-20T00:50:49.756Z,15.03
2023-03-20T00:53:39.603Z,15.17
2023-03-20T00:56:36.495Z,13.37
2023-03-20T00:59:10.515Z,14.07
2023-03-20T01:01:48.060Z,14.27
2023-03-20T01:04:24.121Z,15.83
2023-03-20T01:07:02.598Z,14.30
2023-03-20T01:09:33.084Z,12.40
2023-03-20T01:12:08.031Z,12.93
2023-03-20T01:14:36.907Z,13.13
2023-03-20T01:17:05.654Z,14.80
2023-03-20T01:19:34.431Z,15.07
2023-03-20T01:22:04.567Z,15.90
2023-03-20T01:24:34.749Z,14.10
2023-03-20T01:27:06.996Z,13.23
2023-03-20T01:29:43.722Z,13.60
2023-03-20T01:32:19.742Z,17.80
2023-03-20T01:34:51.449Z,14.10
2023-03-20T01:37:29.121Z,17.30
2023-03-20T01:40:04.364Z,14.50
2023-03-20T01:42:39.362Z,13.87
2023-03-20T01:45:20.536Z,15.47
2023-03-20T01:47:53.001Z,15.33
2023-03-20T01:50:35.550Z,17.50
2023-03-20T01:53:09.562Z,17.93
2023-03-20T01:55:47.756Z,16.27
2023-03-20T01:58:20.286Z,18.33
2023-03-20T02:00:52.415Z,17.73
2023-03-20T02:03:22.362Z,21.63
2023-03-20T02:05:51.832Z,16.87
2023-03-20T02:08:27.831Z,16.93
2023-03-20T02:11:00.636Z,18.83
2023-03-20T02:13:34.069Z,16.40
2023-03-20T02:16:15.435Z,16.63
2023-03-20T02:18:47.505Z,16.43
2023-03-20T02:21:55.865Z,19.00
2023-03-20T02:25:19.642Z,19.73
2023-03-20T02:28:16.334Z,16.50
2023-03-20T02:31:01.326Z,16.53
2023-03-20T02:33:50.983Z,18.07
2023-03-20T02:36:51.152Z,19.13
2023-03-20T02:39:52.699Z,19.60
2023-03-20T02:42:33.777Z,17.33
2023-03-20T02:45:16.723Z,16.00
2023-03-20T02:47:54.477Z,15.13
2023-03-20T02:50:38.592Z,17.63
2023-03-20T02:53:21.186Z,14.30
2023-03-20T02:56:06.328Z,14.33
2023-03-20T02:58:42.097Z,13.37
2023-03-20T03:01:18.391Z,14.37
2023-03-20T03:03:53.935Z,14.30
2023-03-20T03:06:29.870Z,15.63
2023-03-20T03:09:04.089Z,13.43
2023-03-20T03:11:39.865Z,14.20
2023-03-20T03:14:17.009Z,14.83
2023-03-20T03:16:47.828Z,11.83
2023-03-20T03:19:28.482Z,14.00
2023-03-20T03:22:06.939Z,12.67
2023-03-20T03:24:41.574Z,11.70
2023-03-20T03:27:19.863Z,14.50
2023-03-20T03:29:55.171Z,11.73
2023-03-20T03:32:32.126Z,14.17
2023-03-20T03:35:18.017Z,12.43
2023-03-20T03:37:58.389Z,12.27
2023-03-20T03:40:35.545Z,11.70
2023-03-20T03:43:13.788Z,11.77
2023-03-20T03:45:54.096Z,11.13
2023-03-20T03:48:33.297Z,14.93
2023-03-20T03:51:07.208Z,11.53
2023-03-20T03:53:44.835Z,12.00
2023-03-20T03:56:21.228Z,11.60
2023-03-20T03:58:58.036Z,10.13
2023-03-20T04:01:34.349Z,12.67
2023-03-20T04:04:20.601Z,10.17
2023-03-20T04:06:52.720Z,11.60
2023-03-20T04:09:21.764Z,12.27
2023-03-20T04:11:52.793Z,9.67
2023-03-20T04:14:24.772Z,13.63
2023-03-20T04:16:54.938Z,10.13
2023-03-20T04:19:23.680Z,11.60
2023-03-20T04:21:56.029Z,11.87
2023-03-20T04:24:34.647Z,9.83
2023-03-20T04:27:04.724Z,10.33
2023-03-20T04:29:33.573Z,11.73
2023-03-20T04:32:10.189Z,10.97
2023-03-20T04:34:42.566Z,11.83
2023-03-20T04:40:00.294Z,10.80
2023-03-20T04:42:31.097Z,13.03
2023-03-20T04:45:09.310Z,10.70
2023-03-20T04:47:48.580Z,12.07
2023-03-20T04:50:20.480Z,10.93
2023-03-20T04:52:53.919Z,10.97
2023-03-20T04:55:27.647Z,12.90
2023-03-20T04:58:04.331Z,10.50
2023-03-20T05:00:41.215Z,14.63
2023-03-20T05:06:07.655Z,11.63
2023-03-20T05:08:47.952Z,12.33
2023-03-20T05:11:26.627Z,14.07
2023-03-20T05:14:12.296Z,12.17
2023-03-20T05:16:41.672Z,11.80
2023-03-20T05:19:15.164Z,13.47
2023-03-20T05:21:52.834Z,12.23
2023-03-20T05:24:22.353Z,14.27
2023-03-20T05:29:50.034Z,12.73
2023-03-20T05:32:34.252Z,17.07
2023-03-20T05:35:12.935Z,13.97
2023-03-20T05:37:47.983Z,14.70
2023-03-20T05:40:31.945Z,14.87
2023-03-20T05:43:18.193Z,15.40
2023-03-20T05:45:50.128Z,15.80
2023-03-20T05:48:23.089Z,14.93
2023-03-20T05:51:06.235Z,13.47
2023-03-20T05:53:37.842Z,15.23
2023-03-20T05:56:14.767Z,14.23
2023-03-20T05:58:48.633Z,16.00
2023-03-20T06:01:21.900Z,15.53
2023-03-20T06:03:51.798Z,16.70
2023-03-20T06:06:23.452Z,16.40
2023-03-20T06:08:52.605Z,14.90
2023-03-20T06:11:37.352Z,16.40
2023-03-20T06:14:10.920Z,17.97
2023-03-20T06:16:55.415Z,15.10
2023-03-20T06:19:33.892Z,16.87
2023-03-20T06:22:07.182Z,16.93
2023-03-20T06:24:58.335Z,17.63
2023-03-20T06:27:36.216Z,18.73
2023-03-20T06:30:15.044Z,16.03
2023-03-20T06:32:45.260Z,15.60
2023-03-20T06:35:19.635Z,15.40
2023-03-20T06:37:57.646Z,16.40
2023-03-20T06:40:32.468Z,16.47
2023-03-20T06:43:14.090Z,14.57
2023-03-20T06:45:58.302Z,15.83
2023-03-20T06:48:29.699Z,15.23
2023-03-20T06:51:14.399Z,12.57
2023-03-20T06:53:47.136Z,14.17
2023-03-20T06:56:17.314Z,15.07
2023-03-20T06:59:00.583Z,16.53
2023-03-20T07:01:32.903Z,15.47
2023-03-20T07:04:15.020Z,14.30
2023-03-20T07:06:49.284Z,14.07
2023-03-20T07:09:29.054Z,15.77
2023-03-20T07:12:10.327Z,14.70
2023-03-20T07:14:54.800Z,14.93
2023-03-20T07:17:24.076Z,12.57
2023-03-20T07:20:00.196Z,12.23
2023-03-20T07:22:32.980Z,14.33
2023-03-20T07:25:09.093Z,12.93
2023-03-20T07:27:41.215Z,14.17
2023-03-20T07:30:17.337Z,12.87
2023-03-20T07:32:48.733Z,13.83
2023-03-20T07:35:21.698Z,13.30
2023-03-20T07:37:58.146Z,14.17
2023-03-20T07:40:30.142Z,15.57
2023-03-20T07:43:02.387Z,13.40
2023-03-20T07:45:33.503Z,14.57
2023-03-20T07:48:10.323Z,13.07
2023-03-20T07:50:39.440Z,15.10
2023-03-20T07:53:08.812Z,13.63
2023-03-20T07:55:44.625Z,16.97
2023-03-20T07:58:15.806Z,13.53
2023-03-20T08:00:47.864Z,14.63
2023-03-20T08:03:17.521Z,13.37
2023-03-20T08:05:54.286Z,14.57
2023-03-20T08:11:20.556Z,15.37
2023-03-20T08:16:52.049Z,15.43
2023-03-20T08:19:41.005Z,17.07
2023-03-20T08:22:10.378Z,13.13
2023-03-20T08:24:45.274Z,15.13
2023-03-20T08:27:45.368Z,13.83
2023-03-20T08:30:25.290Z,12.73
2023-03-20T08:33:22.916Z,12.80
2023-03-20T08:36:06.331Z,14.07
2023-03-20T08:38:36.146Z,15.97
2023-03-20T08:41:14.216Z,12.57
2023-03-20T08:43:44.487Z,14.10
2023-03-20T08:46:26.261Z,14.30
2023-03-20T08:49:15.432Z,11.90
2023-03-20T08:52:55.307Z,12.27
2023-03-20T08:55:24.187Z,12.87
2023-03-20T08:58:00.480Z,12.00
2023-03-20T09:00:34.961Z,13.70
2023-03-20T09:03:41.899Z,13.63
2023-03-20T09:11:28.113Z,13.13
2023-03-20T09:13:58.155Z,15.20
2023-03-20T09:16:42.800Z,15.60
2023-03-20T09:19:44.119Z,13.93
2023-03-20T09:23:04.856Z,13.70
2023-03-20T09:25:43.797Z,21.00
2023-03-20T09:28:42.246Z,11.73
2023-03-20T09:31:56.755Z,14.10
2023-03-20T09:38:07.678Z,13.77
2023-03-20T09:40:51.725Z,14.63
2023-03-20T09:43:30.142Z,12.40
2023-03-20T09:46:08.547Z,13.00
2023-03-20T09:48:46.265Z,14.27
2023-03-20T09:51:29.677Z,12.33
2023-03-20T09:54:02.576Z,11.43
2023-03-20T09:56:32.250Z,14.07
2023-03-20T09:59:03.482Z,12.47
2023-03-20T10:01:40.950Z,15.20
2023-03-20T10:04:11.640Z,13.10
2023-03-20T10:06:41.931Z,15.00
2023-03-20T10:09:18.386Z,12.47
2023-03-20T10:12:09.975Z,13.70
2023-03-20T10:14:48.017Z,14.53
2023-03-20T10:17:28.237Z,13.57
2023-03-20T10:20:04.259Z,12.40
2023-03-20T10:22:37.274Z,13.33
2023-03-20T10:25:17.798Z,11.27
2023-03-20T10:27:52.013Z,12.40
2023-03-20T10:30:30.119Z,12.13
2023-03-20T10:33:09.173Z,12.07
2023-03-20T10:35:44.941Z,14.50
2023-03-20T10:38:26.645Z,11.17
2023-03-20T10:40:58.107Z,11.17
2023-03-20T10:43:33.275Z,11.13
2023-03-20T10:46:05.793Z,11.10
2023-03-20T10:48:39.020Z,15.47
2023-03-20T10:51:14.804Z,12.63
2023-03-20T10:53:48.453Z,11.07
2023-03-20T10:56:29.111Z,11.47
2023-03-20T10:59:03.213Z,11.30
2023-03-20T11:01:34.400Z,12.37
2023-03-20T11:04:04.337Z,11.63
2023-03-20T11:06:36.618Z,13.37
2023-03-20T11:09:19.637Z,10.90
2023-03-20T11:11:49.131Z,11.13
2023-03-20T11:14:20.643Z,11.93
2023-03-20T11:16:51.524Z,13.53
2023-03-20T11:19:22.086Z,11.77
2023-03-20T11:21:52.712Z,12.07
2023-03-20T11:24:28.956Z,11.80
2023-03-20T11:27:07.365Z,12.63
2023-03-20T11:29:36.574Z,13.83
2023-03-20T11:32:08.456Z,13.00
2023-03-20T11:34:43.206Z,14.97
2023-03-20T11:37:24.926Z,13.20
2023-03-20T11:40:09.195Z,11.10
2023-03-20T11:42:38.327Z,14.77
2023-03-20T11:45:16.692Z,12.47
2023-03-20T11:47:55.636Z,12.17
2023-03-20T11:50:35.655Z,12.73
2023-03-20T11:53:07.110Z,11.80
2023-03-20T11:55:37.554Z,14.07
2023-03-20T11:58:16.655Z,12.93
2023-03-20T12:00:50.062Z,12.63
2023-03-20T12:03:55.881Z,12.23
2023-03-20T12:06:28.045Z,14.43
2023-03-20T12:09:02.229Z,12.20
2023-03-20T12:11:46.659Z,15.77
2023-03-20T12:14:31.137Z,13.00
2023-03-20T12:17:20.853Z,11.53
2023-03-20T12:19:51.840Z,12.80
2023-03-20T12:22:25.871Z,12.33
2023-03-20T12:25:00.038Z,12.30
2023-03-20T12:27:50.749Z,13.53
2023-03-20T12:30:31.069Z,12.53
2023-03-20T12:33:06.076Z,12.40
2023-03-20T12:35:51.003Z,14.47
2023-03-20T12:38:36.467Z,12.67
2023-03-20T12:41:20.962Z,12.63
2023-03-20T12:44:21.800Z,13.47
2023-03-20T12:47:26.523Z,13.30
2023-03-20T12:50:10.034Z,12.63
2023-03-20T12:56:01.607Z,12.47
2023-03-20T12:58:39.873Z,13.47
2023-03-20T13:01:16.059Z,13.27
2023-03-20T13:04:05.062Z,14.17
2023-03-20T13:06:45.219Z,13.63
2023-03-20T13:09:48.109Z,13.67
2023-03-20T13:12:28.965Z,12.33
2023-03-20T13:15:06.267Z,14.17
2023-03-20T13:17:58.842Z,13.87
2023-03-20T13:20:39.515Z,14.80
2023-03-20T13:23:23.828Z,15.30
2023-03-20T13:26:20.519Z,14.97
2023-03-20T13:29:05.643Z,14.33
2023-03-20T13:31:53.738Z,16.13
2023-03-20T13:34:47.775Z,16.23
2023-03-20T13:37:24.733Z,14.67
2023-03-20T13:40:08.629Z,13.40
2023-03-20T13:42:57.975Z,15.80
2023-03-20T13:45:38.634Z,14.57
2023-03-20T13:48:23.206Z,13.93
2023-03-20T13:51:12.442Z,14.50
2023-03-20T13:54:04.313Z,16.27
2023-03-20T13:56:49.858Z,18.67
2023-03-20T13:59:38.416Z,15.10
2023-03-20T14:02:31.171Z,15.07
2023-03-20T14:05:05.803Z,12.90
2023-03-20T14:07:37.549Z,16.43
2023-03-20T14:10:40.785Z,14.50
2023-03-20T14:13:16.150Z,14.67
2023-03-20T14:15:52.288Z,14.77
2023-03-20T14:18:26.596Z,14.17
2023-03-20T14:20:58.017Z,14.93
2023-03-20T14:23:49.202Z,17.00
2023-03-20T14:26:24.168Z,16.13
2023-03-20T14:29:00.040Z,13.97
2023-03-20T14:31:34.383Z,16.13
2023-03-20T14:34:16.235Z,14.77
2023-03-20T14:36:58.759Z,15.87
2023-03-20T14:39:41.840Z,15.43
2023-03-20T14:42:29.238Z,15.40
2023-03-20T14:45:19.196Z,15.03
2023-03-20T14:47:55.009Z,16.10
2023-03-20T14:50:27.265Z,15.37
2023-03-20T14:53:04.363Z,14.77
2023-03-20T14:55:48.681Z,16.20
2023-03-20T14:58:53.482Z,15.90
2023-03-20T15:01:45.130Z,15.40
2023-03-20T15:04:26.509Z,17.30
2023-03-20T15:07:02.420Z,16.20
2023-03-20T15:09:34.019Z,14.70
2023-03-20T15:12:05.610Z,15.20
2023-03-20T15:14:42.451Z,15.93
2023-03-20T15:17:36.464Z,18.77
2023-03-20T15:20:15.209Z,15.13
2023-03-20T15:22:49.838Z,17.57
2023-03-20T15:25:20.955Z,15.30
2023-03-20T15:27:51.983Z,15.40
2023-03-20T15:30:23.159Z,15.47
2023-03-20T15:32:55.420Z,14.87
2023-03-20T15:35:25.370Z,14.40
2023-03-20T15:37:55.145Z,14.50
2023-03-20T15:40:27.066Z,14.83
2023-03-20T15:43:05.136Z,17.00
2023-03-20T15:45:38.194Z,16.80
2023-03-20T15:48:09.054Z,14.40
2023-03-20T15:50:41.319Z,18.97
2023-03-20T15:53:18.262Z,18.27
2023-03-20T15:55:50.965Z,17.30
2023-03-20T15:58:21.454Z,15.50
2023-03-20T16:00:51.201Z,14.13
2023-03-20T16:03:23.309Z,13.67
2023-03-20T16:05:53.150Z,14.47
2023-03-20T16:08:25.728Z,13.77
2023-03-20T16:10:58.327Z,14.77
2023-03-20T16:13:34.977Z,14.60
2023-03-20T16:16:05.802Z,14.10
2023-03-20T16:18:38.492Z,16.27
2023-03-20T16:21:10.033Z,14.27
2023-03-20T16:23:45.768Z,17.27
2023-03-20T16:26:17.515Z,16.50
2023-03-20T16:28:50.510Z,18.13
2023-03-20T16:31:24.138Z,15.40
2023-03-20T16:33:53.526Z,13.97
2023-03-20T16:36:29.788Z,13.83
2023-03-20T16:39:00.251Z,15.50
2023-03-20T16:41:31.962Z,14.43
2023-03-20T16:44:10.909Z,13.87
2023-03-20T16:46:55.576Z,15.27
2023-03-20T16:49:57.533Z,14.63
2023-03-20T16:52:30.064Z,13.77
2023-03-20T16:55:00.119Z,15.60
2023-03-20T16:57:31.020Z,13.43
2023-03-20T17:00:06.566Z,17.00
2023-03-20T17:02:39.898Z,15.17
2023-03-20T17:05:14.440Z,14.67
2023-03-20T17:07:43.962Z,17.60
2023-03-20T17:10:21.611Z,13.67
2023-03-20T17:12:51.414Z,16.30
2023-03-20T17:15:23.928Z,14.17
2023-03-20T17:17:52.811Z,14.97
2023-03-20T17:20:24.351Z,14.80
2023-03-20T17:22:53.485Z,14.83
2023-03-20T17:25:22.745Z,15.10
2023-03-20T17:27:51.465Z,17.47
2023-03-20T17:30:24.117Z,14.60
2023-03-20T17:32:55.436Z,16.53
2023-03-20T17:35:24.069Z,14.20
2023-03-20T17:37:52.793Z,16.30
2023-03-20T17:40:25.271Z,16.40
2023-03-20T17:42:54.093Z,13.93
2023-03-20T17:45:24.800Z,14.57
2023-03-20T17:47:54.252Z,15.13
2023-03-20T17:50:26.978Z,15.37
2023-03-20T17:52:56.027Z,13.33
2023-03-20T17:55:24.596Z,14.60
2023-03-20T17:57:53.932Z,13.73
2023-03-20T18:00:25.883Z,14.00
2023-03-20T18:02:54.573Z,14.83
2023-03-20T18:05:23.363Z,16.10
2023-03-20T18:07:52.004Z,15.60
2023-03-20T18:10:26.357Z,14.77
2023-03-20T18:12:55.057Z,15.07
2023-03-20T18:15:25.188Z,15.93
2023-03-20T18:17:53.861Z,15.10
2023-03-20T18:20:31.213Z,15.53
2023-03-20T18:23:02.874Z,14.77
2023-03-20T18:25:31.947Z,16.77
2023-03-20T18:28:05.053Z,15.07
2023-03-20T18:30:40.039Z,16.97
2023-03-20T18:33:09.618Z,15.67
2023-03-20T18:35:38.798Z,19.47
2023-03-20T18:38:17.157Z,17.60
2023-03-20T18:40:47.348Z,19.00
2023-03-20T18:43:16.243Z,16.20
2023-03-20T18:45:47.137Z,17.77
2023-03-20T18:48:20.392Z,17.37
2023-03-20T18:50:51.171Z,20.13
2023-03-20T18:53:20.304Z,17.67
2023-03-20T18:55:52.311Z,20.47
2023-03-20T18:58:24.855Z,16.93
2023-03-20T19:01:06.952Z,19.13
2023-03-20T19:03:48.515Z,17.33
2023-03-20T19:06:23.885Z,17.27
2023-03-20T19:09:02.288Z,20.30
2023-03-20T19:11:44.918Z,18.30
2023-03-20T19:14:37.629Z,17.40
2023-03-20T19:17:12.977Z,17.37
2023-03-20T19:19:47.855Z,20.57
2023-03-20T19:22:35.081Z,19.07
2023-03-20T19:25:18.257Z,18.40
2023-03-20T19:27:50.448Z,19.13
2023-03-20T19:30:35.376Z,20.73
2023-03-20T19:33:10.452Z,17.43
2023-03-20T19:36:04.875Z,17.93
2023-03-20T19:38:39.810Z,15.77
2023-03-20T19:41:20.737Z,18.10
2023-03-20T19:43:55.303Z,20.60
2023-03-20T19:46:42.413Z,17.33
2023-03-20T19:49:20.483Z,19.50
2023-03-20T19:52:02.723Z,21.07
2023-03-20T19:54:59.935Z,19.87
2023-03-20T19:57:47.996Z,21.40
2023-03-20T20:03:26.459Z,20.43
2023-03-20T20:09:08.224Z,21.07
2023-03-20T20:11:37.128Z,19.70
2023-03-20T20:14:09.636Z,21.17
2023-03-20T20:16:42.594Z,20.37
2023-03-20T20:19:11.738Z,18.00
2023-03-20T20:24:30.909Z,19.60
2023-03-20T20:27:15.777Z,20.03
2023-03-20T20:29:52.601Z,23.10
2023-03-20T20:32:24.926Z,21.97
2023-03-20T20:40:33.668Z,21.17
2023-03-20T20:43:09.812Z,20.47
2023-03-20T20:45:40.226Z,24.80
2023-03-20T20:48:10.387Z,22.77
2023-03-20T20:50:40.812Z,24.03
2023-03-20T20:53:09.528Z,21.63
2023-03-20T20:55:39.762Z,21.37
2023-03-20T20:58:08.608Z,22.07
2023-03-20T21:00:50.588Z,22.13
2023-03-20T21:03:20.706Z,20.43
2023-03-20T21:05:49.339Z,21.07
2023-03-20T21:08:18.999Z,21.03
2023-03-20T21:10:49.412Z,23.80
2023-03-20T21:13:18.002Z,19.77
2023-03-20T21:15:46.948Z,22.57
2023-03-20T21:18:15.838Z,20.70
2023-03-20T21:20:44.584Z,22.00
2023-03-20T21:23:13.281Z,20.17
2023-03-20T21:25:45.600Z,21.43
2023-03-20T21:28:16.961Z,21.23
2023-03-20T21:31:12.412Z,23.07
2023-03-20T21:33:36.913Z,21.83
2023-03-20T21:36:07.227Z,20.67
2023-03-20T21:41:24.870Z,21.00
2023-03-20T21:43:56.143Z,22.40
2023-03-20T21:47:00.113Z,19.93
2023-03-20T21:50:07.817Z,17.33
2023-03-20T21:55:22.314Z,22.47
2023-03-20T22:03:45.286Z,22.03
2023-03-20T22:12:30.389Z,22.27
2023-03-20T22:21:21.760Z,21.27
2023-03-20T22:24:14.889Z,20.93
2023-03-20T22:35:15.286Z,21.87
2023-03-20T22:40:44.441Z,19.90
2023-03-20T22:43:20.831Z,22.50
2023-03-20T22:45:52.725Z,20.40
2023-03-20T22:48:28.678Z,19.53
2023-03-20T22:50:58.812Z,21.13
2023-03-20T22:53:27.426Z,18.83
2023-03-20T22:55:56.206Z,23.37
2023-03-20T22:58:24.971Z,21.03
2023-03-20T23:00:55.144Z,25.13
2023-03-20T23:03:39.883Z,22.43
2023-03-20T23:06:15.609Z,23.30
2023-03-20T23:08:50.775Z,20.57
2023-03-20T23:11:23.440Z,22.80
2023-03-20T23:13:52.813Z,22.70
2023-03-20T23:16:22.256Z,21.63
2023-03-20T23:18:51.118Z,21.83
2023-03-20T23:21:21.233Z,22.53
2023-03-20T23:23:50.447Z,23.13
2023-03-20T23:26:20.991Z,20.90
2023-03-20T23:28:51.537Z,20.80
2023-03-20T23:31:22.895Z,20.13
2023-03-20T23:33:54.203Z,20.23
2023-03-20T23:36:35.766Z,21.00
2023-03-20T23:39:06.410Z,21.07
2023-03-20T23:44:24.591Z,19.33
2023-03-20T23:46:54.771Z,21.70
2023-03-20T23:49:23.772Z,20.40
2023-03-20T23:51:53.825Z,19.50
2023-03-20T23:54:22.615Z,19.20
2023-03-20T23:56:51.230Z,19.10
2023-03-20T23:59:22.117Z,19.43
